createdAt,value
2022-08-03T00:03:38.319Z,26.99
2022-08-03T00:08:41.197Z,26.98
2022-08-03T00:13:44.119Z,27.00
2022-08-03T00:18:48.274Z,26.99
2022-08-03T00:23:52.875Z,26.68
2022-08-03T00:28:55.896Z,26.69
2022-08-03T00:34:03.324Z,26.70
2022-08-03T00:39:06.427Z,26.67
2022-08-03T00:44:09.184Z,26.62
2022-08-03T00:49:13.444Z,26.53
2022-08-03T00:54:16.840Z,26.49
2022-08-03T00:59:19.615Z,26.51
2022-08-03T01:04:24.089Z,26.47
2022-08-03T01:09:37.845Z,26.45
2022-08-03T01:14:45.602Z,26.43
2022-08-03T01:19:57.964Z,26.39
2022-08-03T01:25:07.559Z,26.40
2022-08-03T01:30:13.335Z,26.32
2022-08-03T01:35:22.379Z,26.26
2022-08-03T01:40:28.460Z,26.23
2022-08-03T01:45:34.385Z,26.26
2022-08-03T01:50:38.009Z,26.21
2022-08-03T01:55:42.176Z,26.20
2022-08-03T02:00:49.231Z,26.16
2022-08-03T02:06:17.930Z,26.15
2022-08-03T02:11:18.266Z,26.14
2022-08-03T02:16:24.650Z,26.15
2022-08-03T02:21:55.627Z,26.09
2022-08-03T02:26:56.485Z,26.07
2022-08-03T02:32:04.513Z,25.99
2022-08-03T02:37:09.593Z,25.97
2022-08-03T02:42:15.406Z,25.98
2022-08-03T02:47:22.106Z,25.97
2022-08-03T02:52:28.152Z,25.90
2022-08-03T02:57:32.638Z,25.83
2022-08-03T03:02:38.239Z,25.80
2022-08-03T03:07:52.061Z,25.87
2022-08-03T03:12:57.683Z,25.70
2022-08-03T03:18:02.871Z,25.57
2022-08-03T03:23:06.867Z,25.61
2022-08-03T03:28:11.893Z,25.52
2022-08-03T03:33:16.311Z,25.56
2022-08-03T03:38:19.933Z,25.56
2022-08-03T03:43:24.573Z,25.56
2022-08-03T03:48:29.236Z,25.49
2022-08-03T03:53:35.098Z,25.40
2022-08-03T03:58:37.963Z,25.28
2022-08-03T04:03:42.073Z,25.18
2022-08-03T04:09:13.991Z,25.21
2022-08-03T04:14:20.382Z,25.14
2022-08-03T04:19:29.499Z,25.06
2022-08-03T04:24:36.303Z,25.07
2022-08-03T04:29:44.806Z,25.14
2022-08-03T04:34:53.509Z,24.99
2022-08-03T04:39:59.516Z,24.94
2022-08-03T04:45:04.990Z,25.05
2022-08-03T04:50:13.539Z,25.15
2022-08-03T04:55:26.950Z,25.23
2022-08-03T05:00:30.389Z,25.23
2022-08-03T05:05:49.972Z,25.27
2022-08-03T05:10:53.777Z,25.32
2022-08-03T05:15:56.608Z,25.32
2022-08-03T05:21:00.795Z,25.22
2022-08-03T05:26:03.748Z,25.16
2022-08-03T05:31:06.621Z,25.06
2022-08-03T05:36:10.768Z,24.98
2022-08-03T05:41:22.972Z,24.96
2022-08-03T05:46:26.826Z,24.94
2022-08-03T05:51:31.501Z,24.89
2022-08-03T05:56:34.243Z,24.87
2022-08-03T06:01:37.064Z,24.87
2022-08-03T06:06:42.087Z,24.96
2022-08-03T06:11:44.856Z,24.89
2022-08-03T06:16:48.796Z,24.89
2022-08-03T06:21:52.999Z,24.80
2022-08-03T06:26:56.097Z,24.85
2022-08-03T06:31:58.809Z,24.89
2022-08-03T06:37:02.890Z,24.80
2022-08-03T06:42:06.034Z,24.79
2022-08-03T06:47:13.097Z,24.82
2022-08-03T06:52:37.984Z,24.76
2022-08-03T06:57:40.099Z,24.75
2022-08-03T07:02:43.051Z,24.78
2022-08-03T07:07:47.485Z,24.84
2022-08-03T07:12:55.597Z,24.94
2022-08-03T07:18:00.049Z,25.05
2022-08-03T07:23:04.276Z,25.08
2022-08-03T07:28:07.200Z,25.13
2022-08-03T07:33:09.948Z,25.17
2022-08-03T07:38:14.095Z,25.26
2022-08-03T07:43:17.777Z,25.29
2022-08-03T07:48:20.742Z,25.38
2022-08-03T07:53:24.729Z,25.45
2022-08-03T07:58:27.485Z,25.42
2022-08-03T08:03:30.437Z,25.48
2022-08-03T08:08:55.170Z,25.50
2022-08-03T08:13:57.970Z,25.54
2022-08-03T08:19:02.009Z,25.59
2022-08-03T08:24:10.944Z,25.64
2022-08-03T08:29:23.113Z,25.68
2022-08-03T08:34:25.874Z,25.73
2022-08-03T08:39:29.890Z,25.77
2022-08-03T08:44:32.657Z,25.79
2022-08-03T08:49:37.025Z,25.89
2022-08-03T08:54:45.628Z,25.97
2022-08-03T08:59:49.726Z,26.00
2022-08-03T09:04:54.388Z,26.02
2022-08-03T09:10:11.085Z,26.05
2022-08-03T09:15:26.722Z,26.07
2022-08-03T09:20:31.467Z,26.09
2022-08-03T09:25:37.375Z,26.10
2022-08-03T09:30:42.169Z,26.13
2022-08-03T09:35:57.361Z,26.14
2022-08-03T09:41:01.947Z,26.17
2022-08-03T09:46:07.371Z,26.18
2022-08-03T09:51:14.334Z,26.20
2022-08-03T09:56:45.245Z,26.22
2022-08-03T10:01:48.090Z,26.26
2022-08-03T10:07:06.788Z,26.27
2022-08-03T10:12:12.560Z,26.28
2022-08-03T10:17:15.598Z,26.31
2022-08-03T10:22:20.789Z,26.32
2022-08-03T10:27:26.048Z,26.34
2022-08-03T10:32:32.553Z,26.35
2022-08-03T10:37:41.926Z,26.37
2022-08-03T10:43:08.933Z,26.40
2022-08-03T10:48:12.226Z,26.44
2022-08-03T10:53:15.338Z,26.44
2022-08-03T10:58:57.703Z,26.48
2022-08-03T11:04:18.325Z,26.49
2022-08-03T11:09:21.138Z,26.52
2022-08-03T11:14:25.242Z,26.56
2022-08-03T11:19:56.742Z,26.56
2022-08-03T11:25:02.150Z,26.59
2022-08-03T11:30:10.962Z,26.60
2022-08-03T11:35:16.149Z,26.62
2022-08-03T11:40:35.501Z,26.64
2022-08-03T11:45:39.786Z,26.67
2022-08-03T11:50:45.213Z,26.69
2022-08-03T11:55:49.975Z,26.71
2022-08-03T12:00:54.675Z,26.69
2022-08-03T12:05:57.418Z,26.67
2022-08-03T12:11:02.903Z,26.66
2022-08-03T12:16:07.888Z,26.65
2022-08-03T12:21:12.392Z,26.63
2022-08-03T12:26:15.455Z,26.63
2022-08-03T12:31:19.657Z,26.62
2022-08-03T12:36:22.816Z,26.63
2022-08-03T12:41:31.191Z,26.63
2022-08-03T12:46:37.576Z,26.65
2022-08-03T12:51:57.903Z,26.66
2022-08-03T12:57:03.033Z,26.66
2022-08-03T13:02:09.317Z,26.71
2022-08-03T13:07:14.487Z,26.76
2022-08-03T13:12:20.949Z,26.78
2022-08-03T13:17:25.392Z,26.79
2022-08-03T13:22:29.349Z,26.80
2022-08-03T13:28:13.895Z,26.83
2022-08-03T13:32:58.461Z,26.84
2022-08-03T13:38:01.705Z,26.87
2022-08-03T13:43:05.057Z,26.90
2022-08-03T13:48:09.416Z,26.89
2022-08-03T13:53:12.185Z,26.90
2022-08-03T13:58:15.271Z,26.93
2022-08-03T14:03:19.420Z,26.97
2022-08-03T14:08:22.173Z,26.98
2022-08-03T14:13:25.063Z,26.96
2022-08-03T14:18:33.755Z,26.95
2022-08-03T14:23:38.457Z,26.97
2022-08-03T14:28:42.045Z,27.02
2022-08-03T14:33:46.158Z,26.97
2022-08-03T14:38:50.193Z,26.93
2022-08-03T14:44:00.403Z,26.99
2022-08-03T14:50:36.346Z,27.00
2022-08-03T14:54:30.912Z,27.02
2022-08-03T14:59:56.453Z,27.05
2022-08-03T15:04:57.932Z,27.11
2022-08-03T15:10:02.259Z,27.16
2022-08-03T15:15:05.883Z,27.20
2022-08-03T15:20:25.468Z,27.23
2022-08-03T15:26:04.210Z,27.25
2022-08-03T15:30:57.122Z,27.28
2022-08-03T15:36:01.259Z,27.36
2022-08-03T15:41:04.049Z,27.41
2022-08-03T15:51:31.498Z,27.45
2022-08-03T15:56:34.560Z,27.48
2022-08-03T16:01:37.406Z,27.54
2022-08-03T16:06:41.662Z,27.56
2022-08-03T16:11:44.413Z,27.59
2022-08-03T16:16:47.291Z,27.59
2022-08-03T16:21:51.558Z,27.64
2022-08-03T16:26:54.306Z,27.67
2022-08-03T16:31:57.066Z,27.72
2022-08-03T16:37:16.555Z,27.73
2022-08-03T16:42:23.887Z,27.76
2022-08-03T16:47:26.798Z,27.75
2022-08-03T16:52:30.919Z,27.74
2022-08-03T16:57:58.440Z,27.73
2022-08-03T17:02:59.708Z,27.74
2022-08-03T17:08:10.566Z,27.77
2022-08-03T17:13:22.473Z,27.79
2022-08-03T17:18:29.646Z,27.80
2022-08-03T17:23:40.892Z,27.81
2022-08-03T17:28:50.181Z,27.83
2022-08-03T17:33:55.506Z,27.84
2022-08-03T17:39:01.299Z,27.90
2022-08-03T17:44:14.887Z,27.92
2022-08-03T17:49:24.792Z,27.92
2022-08-03T17:54:36.807Z,27.96
2022-08-03T18:00:27.095Z,27.99
2022-08-03T18:06:11.887Z,28.02
2022-08-03T18:10:57.883Z,28.07
2022-08-03T18:16:08.460Z,28.15
2022-08-03T18:21:16.888Z,28.18
2022-08-03T18:26:22.918Z,28.26
2022-08-03T18:31:59.921Z,28.28
2022-08-03T18:36:50.358Z,28.28
2022-08-03T18:41:54.552Z,28.29
2022-08-03T18:47:18.005Z,28.25
2022-08-03T18:52:27.851Z,28.23
2022-08-03T18:57:39.256Z,28.25
2022-08-03T19:02:49.338Z,28.27
2022-08-03T19:07:59.600Z,28.28
2022-08-03T19:13:11.674Z,28.28
2022-08-03T19:18:17.974Z,28.31
2022-08-03T19:23:24.593Z,28.32
2022-08-03T19:28:30.930Z,28.32
2022-08-03T19:33:55.858Z,28.34
2022-08-03T19:38:59.492Z,28.37
2022-08-03T19:44:06.954Z,28.36
2022-08-03T19:49:15.974Z,28.39
2022-08-03T19:54:25.298Z,28.40
2022-08-03T19:59:42.017Z,28.43
2022-08-03T20:04:53.061Z,28.45
2022-08-03T20:09:57.050Z,28.50
2022-08-03T20:15:01.573Z,28.48
2022-08-03T20:20:05.647Z,28.53
2022-08-03T20:25:12.454Z,28.52
2022-08-03T20:30:20.722Z,28.51
2022-08-03T20:35:30.233Z,28.53
2022-08-03T20:40:34.058Z,28.63
2022-08-03T20:46:00.267Z,28.52
2022-08-03T20:51:02.139Z,28.44
2022-08-03T20:56:05.784Z,28.44
2022-08-03T21:01:12.783Z,28.44
2022-08-03T21:06:27.336Z,28.41
2022-08-03T21:11:41.902Z,28.41
2022-08-03T21:16:46.539Z,28.50
2022-08-03T21:21:50.564Z,28.46
2022-08-03T21:26:55.838Z,28.28
2022-08-03T21:32:00.452Z,28.41
2022-08-03T21:37:03.960Z,28.53
2022-08-03T21:42:07.076Z,28.40
2022-08-03T21:47:13.224Z,28.35
2022-08-03T21:52:17.239Z,28.46
2022-08-03T21:57:23.985Z,28.58
2022-08-03T22:02:32.067Z,28.50
2022-08-03T22:07:35.880Z,28.51
2022-08-03T22:12:39.893Z,28.40
2022-08-03T22:17:54.919Z,28.37
2022-08-03T22:23:02.985Z,28.31
2022-08-03T22:28:09.296Z,28.29
2022-08-03T22:33:15.554Z,28.23
2022-08-03T22:38:19.288Z,28.23
2022-08-03T22:43:24.716Z,28.24
2022-08-03T22:48:29.368Z,28.19
2022-08-03T22:53:36.006Z,28.19
2022-08-03T22:58:38.812Z,28.18
2022-08-03T23:03:58.901Z,28.18
2022-08-03T23:09:07.154Z,28.14
2022-08-03T23:14:12.879Z,28.14
2022-08-03T23:19:25.106Z,28.07
2022-08-03T23:24:30.185Z,28.05
2022-08-03T23:29:35.855Z,27.96
2022-08-03T23:34:59.131Z,27.87
2022-08-03T23:40:03.666Z,27.80
2022-08-03T23:45:07.433Z,27.78
2022-08-03T23:50:12.422Z,27.73
2022-08-03T23:55:22.975Z,27.73
